createdAt,value
2018-02-18T00:00:58.710Z,86.80
2018-02-18T00:03:28.692Z,87.00
2018-02-18T00:05:58.332Z,87.00
2018-02-18T00:08:28.040Z,86.90
2018-02-18T00:10:58.716Z,87.10
2018-02-18T00:13:28.695Z,87.10
2018-02-18T00:16:00.036Z,86.60
2018-02-18T00:18:30.565Z,86.90
2018-02-18T00:21:00.274Z,86.90
2018-02-18T00:23:31.022Z,86.80
2018-02-18T00:26:00.788Z,86.80
2018-02-18T00:28:30.640Z,86.70
2018-02-18T00:31:00.342Z,86.50
2018-02-18T00:33:30.051Z,86.60
2018-02-18T00:35:59.966Z,86.60
2018-02-18T00:38:29.879Z,86.70
2018-02-18T00:41:00.628Z,87.20
2018-02-18T00:43:30.328Z,87.20
2018-02-18T00:46:00.033Z,87.00
2018-02-18T00:48:30.363Z,87.40
2018-02-18T00:51:00.268Z,87.50
2018-02-18T00:53:29.979Z,87.50
2018-02-18T00:56:01.330Z,87.40
2018-02-18T00:58:31.856Z,87.10
2018-02-18T01:01:02.731Z,87.10
2018-02-18T01:03:32.503Z,87.00
2018-02-18T01:06:02.418Z,87.10
2018-02-18T01:08:33.970Z,86.50
2018-02-18T01:11:03.812Z,86.50
2018-02-18T01:13:34.620Z,86.50
2018-02-18T01:16:06.172Z,86.50
2018-02-18T01:18:35.880Z,86.10
2018-02-18T01:21:05.540Z,86.00
2018-02-18T01:23:35.299Z,85.80
2018-02-18T01:26:04.960Z,85.50
2018-02-18T01:28:34.719Z,85.80
2018-02-18T01:31:04.426Z,85.50
2018-02-18T01:33:35.720Z,85.30
2018-02-18T01:36:05.486Z,85.30
2018-02-18T01:38:35.399Z,85.40
2018-02-18T01:41:05.315Z,85.50
2018-02-18T01:43:35.022Z,85.20
2018-02-18T01:46:04.732Z,85.50
2018-02-18T01:48:34.440Z,85.30
2018-02-18T01:51:04.301Z,85.10
2018-02-18T01:53:35.922Z,85.00
2018-02-18T01:56:05.824Z,85.20
2018-02-18T01:58:35.684Z,85.10
2018-02-18T02:01:05.650Z,85.10
2018-02-18T02:03:35.773Z,85.20
2018-02-18T02:06:05.483Z,84.90
2018-02-18T02:08:35.189Z,85.10
2018-02-18T02:11:05.250Z,85.30
2018-02-18T02:13:35.018Z,85.10
2018-02-18T02:16:04.760Z,84.80
2018-02-18T02:18:34.641Z,85.00
2018-02-18T02:21:04.351Z,85.00
2018-02-18T02:23:34.264Z,84.40
2018-02-18T02:26:08.479Z,84.70
2018-02-18T02:28:39.037Z,84.70
2018-02-18T02:31:08.720Z,84.80
2018-02-18T02:33:38.437Z,85.20
2018-02-18T02:36:10.595Z,84.40
2018-02-18T02:38:40.304Z,84.30
2018-02-18T02:41:10.013Z,84.60
2018-02-18T02:43:39.722Z,85.00
2018-02-18T02:46:10.251Z,84.60
2018-02-18T02:48:40.166Z,84.40
2018-02-18T02:51:11.514Z,84.90
2018-02-18T02:53:42.254Z,84.90
2018-02-18T02:56:11.957Z,84.80
2018-02-18T02:58:41.665Z,84.80
2018-02-18T03:01:11.377Z,84.40
2018-02-18T03:03:41.084Z,84.30
2018-02-18T03:06:12.432Z,84.40
2018-02-18T03:08:42.961Z,84.40
2018-02-18T03:11:12.818Z,84.30
2018-02-18T03:13:42.585Z,84.20
2018-02-18T03:16:12.447Z,84.30
2018-02-18T03:18:42.217Z,84.50
2018-02-18T03:21:12.329Z,84.40
2018-02-18T03:23:42.244Z,84.30
2018-02-18T03:26:13.589Z,84.30
2018-02-18T03:28:43.297Z,84.30
2018-02-18T03:31:13.011Z,85.00
2018-02-18T03:33:43.537Z,84.10
2018-02-18T03:36:14.221Z,84.10
2018-02-18T03:38:44.185Z,84.50
2018-02-18T03:41:13.902Z,84.30
2018-02-18T03:43:43.603Z,84.30
2018-02-18T03:46:13.314Z,84.20
2018-02-18T03:48:44.047Z,84.30
2018-02-18T03:51:13.961Z,84.10
2018-02-18T03:53:43.670Z,84.20
2018-02-18T03:56:13.380Z,84.20
2018-02-18T03:58:43.297Z,84.40
2018-02-18T04:01:13.004Z,83.70
2018-02-18T04:03:42.713Z,84.20
2018-02-18T04:06:12.628Z,84.30
2018-02-18T04:08:43.360Z,83.70
2018-02-18T04:11:14.096Z,83.90
2018-02-18T04:13:43.804Z,83.90
2018-02-18T04:16:13.519Z,83.60
2018-02-18T04:18:43.232Z,83.90
2018-02-18T04:21:12.926Z,84.10
2018-02-18T04:23:42.640Z,83.90
2018-02-18T04:26:12.350Z,83.50
2018-02-18T04:28:42.674Z,84.30
2018-02-18T04:31:12.588Z,83.90
2018-02-18T04:33:42.504Z,84.20
2018-02-18T04:36:12.212Z,84.00
2018-02-18T04:38:42.744Z,84.10
2018-02-18T04:41:14.091Z,83.80
2018-02-18T04:43:43.799Z,83.80
2018-02-18T04:46:13.507Z,84.40
2018-02-18T04:48:44.037Z,83.80
2018-02-18T04:51:13.746Z,83.80
2018-02-18T04:53:43.808Z,83.80
2018-02-18T04:56:14.395Z,83.90
2018-02-18T04:58:44.103Z,83.80
2018-02-18T05:01:13.814Z,83.60
2018-02-18T05:03:44.956Z,83.50
2018-02-18T05:06:16.099Z,83.80
2018-02-18T05:08:45.808Z,83.80
2018-02-18T05:11:15.517Z,83.20
2018-02-18T05:13:46.866Z,83.30
2018-02-18T05:16:16.578Z,83.30
2018-02-18T05:18:46.694Z,83.40
2018-02-18T05:21:16.403Z,83.20
2018-02-18T05:23:46.523Z,83.20
2018-02-18T05:26:17.872Z,83.50
2018-02-18T05:28:47.786Z,83.50
2018-02-18T05:31:17.495Z,83.40
2018-02-18T05:33:47.202Z,83.50
2018-02-18T05:36:16.913Z,83.40
2018-02-18T05:38:46.623Z,83.30
2018-02-18T05:41:16.537Z,84.00
2018-02-18T05:43:46.454Z,84.10
2018-02-18T05:46:17.799Z,83.90
2018-02-18T05:48:47.507Z,83.90
2018-02-18T05:51:17.218Z,84.40
2018-02-18T05:53:46.927Z,84.30
2018-02-18T05:56:18.218Z,83.60
2018-02-18T05:58:47.990Z,83.50
2018-02-18T06:01:18.309Z,83.80
2018-02-18T06:03:49.191Z,84.00
2018-02-18T06:06:19.841Z,83.70
2018-02-18T06:08:49.483Z,84.00
2018-02-18T06:11:20.040Z,83.10
2018-02-18T06:13:49.849Z,83.40
2018-02-18T06:16:20.259Z,84.40
2018-02-18T06:18:55.999Z,84.40
2018-02-18T06:21:32.257Z,84.60
2018-02-18T06:24:02.692Z,83.70
2018-02-18T06:26:32.401Z,84.40
2018-02-18T06:29:02.934Z,83.30
2018-02-18T06:31:32.844Z,83.30
2018-02-18T06:34:02.758Z,84.00
2018-02-18T06:36:39.022Z,83.70
2018-02-18T06:39:08.881Z,84.00
2018-02-18T06:41:38.692Z,84.40
2018-02-18T06:44:08.764Z,84.30
2018-02-18T06:46:38.882Z,83.70
2018-02-18T06:49:09.569Z,84.30
2018-02-18T06:51:39.482Z,84.30
2018-02-18T06:54:10.265Z,84.00
2018-02-18T06:56:39.973Z,84.20
2018-02-18T06:59:09.684Z,84.30
2018-02-18T07:01:40.072Z,84.20
2018-02-18T07:04:10.126Z,84.50
2018-02-18T07:06:39.983Z,84.60
2018-02-18T07:09:10.365Z,83.50
2018-02-18T07:11:40.079Z,83.10
2018-02-18T07:14:09.989Z,84.10
2018-02-18T07:16:39.697Z,84.50
2018-02-18T07:19:09.543Z,84.30
2018-02-18T07:21:40.091Z,84.60
2018-02-18T07:24:12.512Z,84.00
2018-02-18T07:26:43.047Z,84.20
2018-02-18T07:29:14.593Z,84.20
2018-02-18T07:31:46.351Z,84.30
2018-02-18T07:34:17.700Z,84.70
2018-02-18T07:36:48.638Z,84.70
2018-02-18T07:39:19.985Z,84.20
2018-02-18T07:41:52.768Z,84.60
2018-02-18T07:44:23.707Z,84.50
2018-02-18T07:46:54.645Z,85.00
2018-02-18T07:49:28.079Z,84.80
2018-02-18T07:51:57.749Z,84.80
2018-02-18T07:54:31.504Z,85.00
2018-02-18T07:57:03.323Z,85.00
2018-02-18T07:59:34.046Z,85.10
2018-02-18T08:02:04.733Z,85.00
2018-02-18T08:04:35.717Z,85.60
2018-02-18T08:07:07.474Z,86.70
2018-02-18T08:09:39.439Z,88.70
2018-02-18T08:12:11.604Z,87.60
2018-02-18T08:14:43.156Z,87.60
2018-02-18T08:17:13.849Z,87.30
2018-02-18T08:19:48.390Z,87.20
2018-02-18T08:22:20.276Z,86.80
2018-02-18T08:24:52.646Z,86.30
2018-02-18T08:27:23.182Z,86.10
2018-02-18T08:29:54.929Z,85.90
2018-02-18T08:32:26.285Z,85.70
2018-02-18T08:34:56.358Z,85.40
2018-02-18T08:37:28.508Z,85.30
2018-02-18T08:39:58.469Z,85.30
2018-02-18T08:42:30.853Z,85.10
2018-02-18T08:45:01.824Z,85.00
2018-02-18T08:47:32.420Z,84.90
2018-02-18T08:50:03.474Z,84.80
2018-02-18T08:52:34.934Z,84.40
2018-02-18T08:55:07.385Z,84.30
2018-02-18T08:57:37.298Z,84.30
2018-02-18T09:00:08.238Z,84.00
2018-02-18T09:02:38.159Z,84.10
2018-02-18T09:05:09.295Z,84.00
2018-02-18T09:07:41.210Z,84.20
2018-02-18T09:10:11.708Z,84.10
2018-02-18T09:12:42.269Z,84.20
2018-02-18T09:15:13.457Z,84.20
2018-02-18T09:17:44.179Z,83.80
2018-02-18T09:20:14.311Z,83.90
2018-02-18T09:22:44.840Z,84.00
2018-02-18T09:25:14.706Z,84.10
2018-02-18T09:27:46.128Z,83.60
2018-02-18T09:30:17.449Z,83.60
2018-02-18T09:32:54.330Z,82.80
2018-02-18T09:35:26.699Z,82.30
2018-02-18T09:37:57.849Z,82.50
2018-02-18T09:40:31.028Z,82.50
2018-02-18T09:43:02.064Z,82.50
2018-02-18T09:45:32.094Z,82.70
2018-02-18T09:48:02.898Z,83.10
2018-02-18T09:50:33.966Z,83.10
2018-02-18T09:53:09.389Z,83.00
2018-02-18T09:55:40.760Z,82.90
2018-02-18T09:58:11.411Z,82.50
2018-02-18T10:00:42.639Z,82.40
2018-02-18T10:03:13.519Z,82.40
2018-02-18T10:05:44.311Z,82.30
2018-02-18T10:08:14.179Z,82.00
2018-02-18T10:10:44.956Z,81.90
2018-02-18T10:13:15.010Z,81.10
2018-02-18T10:15:46.626Z,81.30
2018-02-18T10:18:19.005Z,81.70
2018-02-18T10:20:49.655Z,81.30
2018-02-18T10:23:21.205Z,81.70
2018-02-18T10:25:53.661Z,81.30
2018-02-18T10:28:25.215Z,81.30
2018-02-18T10:30:56.113Z,80.70
2018-02-18T10:33:26.676Z,80.10
2018-02-18T10:35:56.596Z,80.10
2018-02-18T10:38:27.330Z,79.30
2018-02-18T10:40:58.964Z,79.80
2018-02-18T10:43:30.432Z,80.50
2018-02-18T10:46:04.036Z,80.10
2018-02-18T10:48:33.945Z,80.10
2018-02-18T10:51:05.097Z,79.80
2018-02-18T10:53:36.731Z,79.80
2018-02-18T10:56:07.183Z,79.80
2018-02-18T10:58:37.492Z,80.40
2018-02-18T11:01:08.994Z,80.40
2018-02-18T11:03:39.056Z,80.90
2018-02-18T11:06:11.741Z,80.70
2018-02-18T11:08:42.365Z,81.10
2018-02-18T11:11:14.320Z,80.90
2018-02-18T11:13:45.101Z,79.80
2018-02-18T11:16:22.239Z,78.70
2018-02-18T11:18:56.776Z,78.80
2018-02-18T11:21:28.238Z,79.00
2018-02-18T11:23:59.346Z,79.20
2018-02-18T11:26:29.706Z,79.90
2018-02-18T11:28:59.720Z,79.30
2018-02-18T11:31:29.662Z,79.30
2018-02-18T11:33:59.513Z,79.00
2018-02-18T11:36:29.556Z,79.20
2018-02-18T11:39:00.088Z,79.00
2018-02-18T11:41:30.737Z,79.50
2018-02-18T11:44:01.344Z,80.00
2018-02-18T11:46:32.077Z,80.20
2018-02-18T11:49:02.033Z,80.20
2018-02-18T11:51:32.069Z,80.10
2018-02-18T11:54:01.983Z,79.80
2018-02-18T11:56:32.152Z,80.30
2018-02-18T11:59:01.854Z,80.00
2018-02-18T12:01:31.776Z,79.40
2018-02-18T12:04:01.847Z,79.30
2018-02-18T12:06:31.902Z,79.70
2018-02-18T12:09:02.710Z,79.10
2018-02-18T12:11:33.269Z,79.10
2018-02-18T12:14:05.001Z,79.10
2018-02-18T12:16:34.966Z,79.70
2018-02-18T12:19:05.093Z,79.30
2018-02-18T12:21:35.185Z,79.20
2018-02-18T12:24:06.067Z,78.70
2018-02-18T12:26:35.989Z,79.30
2018-02-18T12:29:05.946Z,79.70
2018-02-18T12:31:36.638Z,79.60
2018-02-18T12:34:06.593Z,79.60
2018-02-18T12:36:37.276Z,80.30
2018-02-18T12:39:07.200Z,80.40
2018-02-18T12:41:36.951Z,79.80
2018-02-18T12:44:07.230Z,79.30
2018-02-18T12:46:37.441Z,79.80
2018-02-18T12:49:07.511Z,79.80
2018-02-18T12:51:38.863Z,79.50
2018-02-18T12:54:08.986Z,79.50
2018-02-18T12:56:41.098Z,79.70
2018-02-18T12:59:11.070Z,79.60
2018-02-18T13:01:41.070Z,79.70
2018-02-18T13:04:11.095Z,80.00
2018-02-18T13:06:41.080Z,79.80
2018-02-18T13:09:10.925Z,80.20
2018-02-18T13:11:41.453Z,79.20
2018-02-18T13:14:11.571Z,79.40
2018-02-18T13:16:41.280Z,79.70
2018-02-18T13:19:11.001Z,79.90
2018-02-18T13:21:40.707Z,80.40
2018-02-18T13:24:11.346Z,80.50
2018-02-18T13:26:41.961Z,80.00
2018-02-18T13:29:12.694Z,80.40
2018-02-18T13:31:43.225Z,80.40
2018-02-18T13:34:13.144Z,80.20
2018-02-18T13:36:43.160Z,80.00
2018-02-18T13:39:13.169Z,80.20
2018-02-18T13:41:43.164Z,79.80
2018-02-18T13:44:13.207Z,79.40
2018-02-18T13:46:44.011Z,80.50
2018-02-18T13:49:14.057Z,80.50
2018-02-18T13:51:44.381Z,80.20
2018-02-18T13:54:14.453Z,80.10
2018-02-18T13:56:44.489Z,79.90
2018-02-18T13:59:14.545Z,80.20
2018-02-18T14:01:45.482Z,79.50
2018-02-18T14:04:15.984Z,79.50
2018-02-18T14:06:45.713Z,79.90
2018-02-18T14:09:16.452Z,79.80
2018-02-18T14:11:46.359Z,79.70
2018-02-18T14:14:16.275Z,79.50
2018-02-18T14:16:47.070Z,79.50
2018-02-18T14:19:17.125Z,79.30
2018-02-18T14:21:46.838Z,79.60
2018-02-18T14:24:18.182Z,80.30
2018-02-18T14:26:48.718Z,80.20
2018-02-18T14:29:18.470Z,80.20
2018-02-18T14:31:48.335Z,80.60
2018-02-18T14:34:18.252Z,80.30
2018-02-18T14:36:49.668Z,80.90
2018-02-18T14:39:19.744Z,80.90
2018-02-18T14:44:02.342Z,81.60
2018-02-18T14:48:45.993Z,80.70
2018-02-18T14:52:29.225Z,80.60
2018-02-18T14:55:09.859Z,80.20
2018-02-18T14:57:40.862Z,80.50
2018-02-18T15:00:10.641Z,80.20
2018-02-18T15:02:40.837Z,81.00
2018-02-18T15:05:10.780Z,81.10
2018-02-18T15:07:40.768Z,81.10
2018-02-18T15:10:11.321Z,80.80
2018-02-18T15:12:41.212Z,80.80
2018-02-18T15:15:12.381Z,81.10
2018-02-18T15:17:42.498Z,81.60
2018-02-18T15:20:12.617Z,81.40
2018-02-18T15:22:42.533Z,81.30
2018-02-18T15:25:13.266Z,81.10
2018-02-18T15:27:43.183Z,81.10
2018-02-18T15:30:13.916Z,81.20
2018-02-18T15:32:43.828Z,80.90
2018-02-18T15:35:13.641Z,81.30
2018-02-18T15:37:43.598Z,81.50
2018-02-18T15:40:13.572Z,81.30
2018-02-18T15:42:45.127Z,81.40
2018-02-18T15:45:15.040Z,81.40
2018-02-18T15:47:46.885Z,81.30
2018-02-18T15:50:16.768Z,81.30
2018-02-18T15:52:46.632Z,81.20
2018-02-18T15:55:16.555Z,81.20
2018-02-18T15:57:46.464Z,81.40
2018-02-18T16:00:16.603Z,81.60
2018-02-18T16:02:46.489Z,81.80
2018-02-18T16:05:16.522Z,81.80
2018-02-18T16:07:47.391Z,81.90
2018-02-18T16:10:17.254Z,81.90
2018-02-18T16:12:47.963Z,82.10
2018-02-18T16:15:17.954Z,82.10
2018-02-18T16:17:47.815Z,82.40
2018-02-18T16:20:17.934Z,82.60
2018-02-18T16:22:48.051Z,82.70
2018-02-18T16:25:18.140Z,82.70
2018-02-18T16:27:48.451Z,82.80
2018-02-18T16:30:18.416Z,82.70
2018-02-18T16:32:48.946Z,82.90
2018-02-18T16:35:19.440Z,82.90
2018-02-18T16:37:49.690Z,83.10
2018-02-18T16:40:20.124Z,83.30
2018-02-18T16:42:50.851Z,83.60
2018-02-18T16:45:21.894Z,83.30
2018-02-18T16:47:51.688Z,83.40
2018-02-18T16:50:22.440Z,83.50
2018-02-18T16:52:52.556Z,83.60
2018-02-18T16:55:23.288Z,83.20
2018-02-18T16:57:52.998Z,82.90
2018-02-18T17:00:23.944Z,82.80
2018-02-18T17:02:54.055Z,83.10
2018-02-18T17:05:24.038Z,82.80
2018-02-18T17:07:54.090Z,82.90
2018-02-18T17:10:24.168Z,82.80
2018-02-18T17:12:54.735Z,82.90
2018-02-18T17:15:24.509Z,82.80
2018-02-18T17:17:54.568Z,82.70
2018-02-18T17:20:25.290Z,82.60
2018-02-18T17:22:55.419Z,82.60
2018-02-18T17:25:25.434Z,83.00
2018-02-18T17:27:55.143Z,83.10
2018-02-18T17:30:25.018Z,82.80
2018-02-18T17:32:55.737Z,83.00
2018-02-18T17:35:25.510Z,83.00
2018-02-18T17:37:55.426Z,83.00
2018-02-18T17:40:26.154Z,83.10
2018-02-18T17:42:56.078Z,83.10
2018-02-18T17:45:26.206Z,83.00
2018-02-18T17:47:56.308Z,83.60
2018-02-18T17:50:27.291Z,83.30
2018-02-18T17:52:57.764Z,83.20
2018-02-18T17:55:27.889Z,83.10
2018-02-18T17:57:58.007Z,83.00
2018-02-18T18:00:28.124Z,82.70
2018-02-18T18:02:58.152Z,83.10
2018-02-18T18:05:28.874Z,82.90
2018-02-18T18:08:00.121Z,82.80
2018-02-18T18:10:30.240Z,82.80
2018-02-18T18:13:00.156Z,82.80
2018-02-18T18:15:30.078Z,82.80
2018-02-18T18:18:00.346Z,83.00
2018-02-18T18:20:30.383Z,83.10
2018-02-18T18:23:00.430Z,82.80
2018-02-18T18:25:30.304Z,82.90
2018-02-18T18:28:00.241Z,83.30
2018-02-18T18:30:30.175Z,83.10
2018-02-18T18:33:01.081Z,82.90
2018-02-18T18:35:31.276Z,83.10
2018-02-18T18:38:02.320Z,82.90
2018-02-18T18:40:32.869Z,83.20
2018-02-18T18:43:03.005Z,83.10
2018-02-18T18:45:33.755Z,83.00
2018-02-18T18:48:03.665Z,83.10
2018-02-18T18:50:33.466Z,83.00
2018-02-18T18:53:03.498Z,83.10
2018-02-18T18:55:33.416Z,83.60
2018-02-18T18:58:03.533Z,83.00
2018-02-18T19:00:33.851Z,83.10
2018-02-18T19:03:05.857Z,83.10
2018-02-18T19:05:35.896Z,83.00
2018-02-18T19:08:06.022Z,83.10
2018-02-18T19:10:35.958Z,83.10
2018-02-18T19:13:07.513Z,82.80
2018-02-18T19:15:38.952Z,82.90
2018-02-18T19:18:08.971Z,82.90
2018-02-18T19:20:38.912Z,83.00
2018-02-18T19:23:08.958Z,83.00
2018-02-18T19:25:38.882Z,83.30
2018-02-18T19:28:08.943Z,83.00
2018-02-18T19:30:39.380Z,82.80
2018-02-18T19:33:11.239Z,83.00
2018-02-18T19:35:41.119Z,82.90
2018-02-18T19:38:11.372Z,82.90
2018-02-18T19:40:43.386Z,83.00
2018-02-18T19:43:13.464Z,83.00
2018-02-18T19:45:43.372Z,83.10
2018-02-18T19:48:13.302Z,83.10
2018-02-18T19:50:43.400Z,83.20
2018-02-18T19:53:15.364Z,83.20
2018-02-18T19:55:45.460Z,83.30
2018-02-18T19:58:15.335Z,83.00
2018-02-18T20:00:45.345Z,83.10
2018-02-18T20:03:15.327Z,82.90
2018-02-18T20:05:45.655Z,82.90
2018-02-18T20:08:15.644Z,83.10
2018-02-18T20:10:45.687Z,83.60
2018-02-18T20:13:16.044Z,83.40
2018-02-18T20:15:46.332Z,83.30
2018-02-18T20:18:16.044Z,83.40
2018-02-18T20:20:45.979Z,83.40
2018-02-18T20:23:16.082Z,83.30
2018-02-18T20:25:47.218Z,83.40
2018-02-18T20:28:17.077Z,83.40
2018-02-18T20:30:47.434Z,83.40
2018-02-18T20:33:17.486Z,83.60
2018-02-18T20:35:49.530Z,83.50
2018-02-18T20:38:19.339Z,83.50
2018-02-18T20:40:49.367Z,83.40
2018-02-18T20:43:20.115Z,83.30
2018-02-18T20:45:50.011Z,83.30
2018-02-18T20:48:20.140Z,83.60
2018-02-18T20:50:50.261Z,83.60
2018-02-18T20:53:20.781Z,83.60
2018-02-18T20:55:51.523Z,83.60
2018-02-18T20:58:21.431Z,83.50
2018-02-18T21:00:53.103Z,83.60
2018-02-18T21:03:23.696Z,83.40
2018-02-18T21:05:53.425Z,83.40
2018-02-18T21:08:23.311Z,83.50
2018-02-18T21:10:53.252Z,83.40
2018-02-18T21:13:23.988Z,83.60
2018-02-18T21:15:53.901Z,83.60
2018-02-18T21:18:23.623Z,83.60
2018-02-18T21:20:53.678Z,83.40
2018-02-18T21:23:23.439Z,83.50
2018-02-18T21:25:53.151Z,83.80
2018-02-18T21:28:22.903Z,83.60
2018-02-18T21:30:53.387Z,83.70
2018-02-18T21:33:24.121Z,83.60
2018-02-18T21:35:54.856Z,83.90
2018-02-18T21:38:25.174Z,83.80
2018-02-18T21:40:56.731Z,83.50
2018-02-18T21:43:26.593Z,83.40
2018-02-18T21:45:57.379Z,83.60
2018-02-18T21:48:27.910Z,83.60
2018-02-18T21:50:57.821Z,83.60
2018-02-18T21:53:27.736Z,83.60
2018-02-18T21:55:57.804Z,83.70
2018-02-18T21:58:27.565Z,84.20
2018-02-18T22:00:57.478Z,83.50
2018-02-18T22:03:27.598Z,83.50
2018-02-18T22:05:57.521Z,83.60
2018-02-18T22:08:27.493Z,83.40
2018-02-18T22:10:57.456Z,83.60
2018-02-18T22:13:27.460Z,83.50
2018-02-18T22:15:57.374Z,83.70
2018-02-18T22:18:27.228Z,83.60
2018-02-18T22:20:56.999Z,83.50
2018-02-18T22:23:26.706Z,83.80
2018-02-18T22:25:56.620Z,83.80
2018-02-18T22:28:26.538Z,83.50
2018-02-18T22:30:56.448Z,83.90
2018-02-18T22:33:27.597Z,83.70
2018-02-18T22:35:59.150Z,83.90
2018-02-18T22:38:29.265Z,83.90
2018-02-18T22:40:59.177Z,83.90
2018-02-18T22:43:29.708Z,83.90
2018-02-18T22:45:59.417Z,83.90
2018-02-18T22:48:30.968Z,84.10
2018-02-18T22:51:00.686Z,84.00
2018-02-18T22:53:30.390Z,84.20
2018-02-18T22:56:00.098Z,83.90
2018-02-18T22:58:30.013Z,84.10
2018-02-18T23:00:59.815Z,83.90
2018-02-18T23:03:29.586Z,84.10
2018-02-18T23:05:59.347Z,84.10
2018-02-18T23:08:29.054Z,84.20
2018-02-18T23:10:58.919Z,84.10
2018-02-18T23:13:28.883Z,84.20
2018-02-18T23:15:58.598Z,84.20
2018-02-18T23:18:29.325Z,84.20
2018-02-18T23:21:09.685Z,84.10
2018-02-18T23:23:39.396Z,84.10
2018-02-18T23:26:09.104Z,84.00
2018-02-18T23:28:38.819Z,84.10
2018-02-18T23:31:08.674Z,84.20
2018-02-18T23:33:39.052Z,84.30
2018-02-18T23:36:08.913Z,84.30
2018-02-18T23:38:38.675Z,84.20
2018-02-18T23:41:09.764Z,84.10
2018-02-18T23:43:39.530Z,84.10
2018-02-18T23:46:09.442Z,84.20
2018-02-18T23:48:39.151Z,84.30
2018-02-18T23:51:08.934Z,84.30
2018-02-18T23:53:38.776Z,84.20
2018-02-18T23:56:08.692Z,84.20
2018-02-18T23:58:38.399Z,84.10
